Ord, NE

4:11 AM CDT on April 26, 2017 (GMT -0500)
Sharp | | Change Station
Active Advisory: Frost Advisory

Elev 2070 ft 41.62 °N, 98.95 °W | Updated 18 minutes ago

Overcast
Overcast
33 °F
Feels Like 20 °F
N
26
Wind Variable Wind from NNW
Gusts 32 mph

Today
High -- | Low -- °F
--% Chance of Precip.
Yesterday
High -- | Low -- °F
Precip. -- in
Pressure 29.76 in
Visibility 10.0 miles
Clouds Overcast 1500 ft
Windchill 20 °F
Dew Point 28 °F
Humidity 82%
Rainfall 0.00 in
Snow Depth Not available.
6:38 AM 8:28 PM
Waning Crescent, 0% visible
METAR KODX 260853Z AUTO 33023G28KT 10SM OVC015 01/M02 A2971 RMK AO2 PK WND 33029/0756 SLP076 60000 T00061022 55007
Pressure 29.76 in
Visibility 10.0 miles
Clouds Overcast 1500 ft
Windchill 20 °F
Dew Point 28 °F
Humidity 82%
Rainfall 0.00 in
Snow Depth Not available.
6:38 AM 8:28 PM
Waning Crescent, 0% visible
METAR KODX 260853Z AUTO 33023G28KT 10SM OVC015 01/M02 A2971 RMK AO2 PK WND 33029/0756 SLP076 60000 T00061022 55007

Get Your Daily Forecast Email!

Thanks for signing up!

Be on the lookout for a verification email in your inbox.

You'll start receiving severe weather alerts in your inbox..

×

10-Day Weather Forecast

Almanac

Astronomy

Apr. 26, 2017 Rise Set
Actual Time
Civil Twilight
Nautical Twilight
Astronomical Twilight
Moon
Length of Visible Light
Length of Day
Tomorrow will be .
, % of the Moon is Illuminated

Today's Extremes

State Highs State Lows

Community

WunderPhotos

WunderBlog® & News

Nearby

Air Quality

  Air Quality AQ Index Pollutant
Not available.

Snow Depth

Station Depth Elevation

Earthquake Activity

City Distance Mag. Time & Date
Minimum magnitude displayed is 2.5.

Coastal Water Temperatures

Place Temperature

Stations

Nearby Weather Stations

Station Location Temp. Windchill Dew Point Humidity Wind Precip. Elev Updated Type
                   

Watches & Warnings

Frost Advisory
Issued: 3:43 AM CDT Apr. 26, 2017 – National Weather Service

... Frost advisory in effect from midnight tonight to 9 am CDT
Thursday...

The National Weather Service in Hastings has issued a frost
advisory, which is in effect from midnight tonight to 9 am CDT
Thursday.

* Temperatures... overnight low temperatures falling between 30 and
35 degrees in most areas, with some places mainly north of
Nebraska Highway 92 perhaps into the upper 20s. However, a
widespread hard freeze is not anticipated.

* Impacts... sensitive outdoor vegetation may be damaged or killed
if left unprotected.

* Uncertainty... despite the cold temperatures, it is possible some
areas may not see much frost, especially in southern and western
counties which could be more prone to clouds increasing from the
west. Overall, the most favored area for widespread frost
appears to focus north of a line from Kearney to Geneva
Nebraska.

Precautionary/preparedness actions...

A frost advisory means that widespread frost is expected.
Sensitive outdoor plants may be killed if left uncovered.



Pfannkuch